Simi Valley, CA (93062)

9:31 PM PST on January 19, 2018 (GMT -0800)
Greek Tract | | Change Station
Active Advisory: Freeze Watch

Elev 754 ft 34.27 °N, 118.79 °W | Updated 13 seconds ago

Mostly Cloudy
Mostly Cloudy
53.2 °F
Feels Like 53.2 °F
N
0.9
Wind Variable Wind from East
Gusts 2.5 mph

Today
High -- | Low -- °F
--% Chance of Precip.
Yesterday
High -- | Low -- °F
Precip. -- in
Pressure 29.94 in
Visibility 10.0 miles
Clouds Mostly Cloudy 3600 ft
Overcast 4900 ft
Dew Point 40 °F
Humidity 61%
Rainfall 0.00 in
Snow Depth Not available.
6:59 AM 5:12 PM
Waxing Crescent, 9% visible
METAR KCMA 200455Z AUTO 03004KT 10SM BKN036 OVC049 14/10 A2991 RMK AO2 SLP138 T01440100
Pressure 29.94 in
Visibility 10.0 miles
Clouds Mostly Cloudy 3600 ft
Overcast 4900 ft
Dew Point 40 °F
Humidity 61%
Rainfall 0.00 in
Snow Depth Not available.
6:59 AM 5:12 PM
Waxing Crescent, 9% visible
METAR KCMA 200455Z AUTO 03004KT 10SM BKN036 OVC049 14/10 A2991 RMK AO2 SLP138 T01440100

Get Your Daily Forecast Email!

Thanks for signing up!

Be on the lookout for a verification email in your inbox.

You'll start receiving severe weather alerts in your inbox..

×

10-Day Weather Forecast

Almanac

Astronomy

Jan. 19, 2018 Rise Set
Actual Time
Civil Twilight
Nautical Twilight
Astronomical Twilight
Moon
Length of Visible Light
Length of Day
Tomorrow will be .
, % of the Moon is Illuminated

Today's Extremes

State Highs State Lows

Community

WunderPhotos

Category 6

Welcome to Category 6. This is the collective home for Weather Underground's featured writeups by Dr. Jeff Masters (right), Bob Henson (left), Chris Burt, and other regular contributors.

Nearby

Air Quality

  Air Quality AQ Index Pollutant
Not available.

Snow Depth

Station Depth Elevation

Earthquake Activity

City Distance Mag. Time & Date
Minimum magnitude displayed is 2.5.

Coastal Water Temperatures

Place Temperature

Stations

Nearby Weather Stations

Station Location Temp. Windchill Dew Point Humidity Wind Precip. Elev Updated Type
                   

Watches & Warnings

Freeze Watch
Issued: 8:53 PM PST Jan. 19, 2018 – National Weather Service

... Freeze watch in effect from late Saturday night through Sunday
morning...

The National Weather Service in Los Angeles/Oxnard has issued a
freeze watch for the Ventura County valleys. This watch is in
effect from late Saturday night through Sunday morning.

* Temperature... temperatures will likely drop to near or below 32
degrees on Saturday night and remain around freezing until
Sunday morning.

* Impacts... a hard freeze can kill crops and sensitive
vegetation, and harm outdoor pets and livestock. Extended
exposure to cold can cause hypothermia.

Precautionary/preparedness actions...

A freeze watch means temperatures between 29 and 32 degrees or
less will be possible for at least two consecutive hours.
Protective measures to save outdoor plants may be needed.
Vulnerable animals and pets should be kept indoors in a house or
barn.



Hall